Terminal Aerodrome Forecast
Issued by NWS

Home | Current Version | Previous Version | Text Only | Print | Product List | Glossary On
Versions: 1 2 3 4 5 6 7 8 9 10 11 12 13
000
FTUS45 KRIW 290500
TAFWRL
TAF
KWRL 290532Z 2906/3006 VRB04KT P6SM BKN070
     FM290800 VRB04KT P6SM VCFG SCT003 SCT070
     FM291900 VRB05KT P6SM FEW015
     FM300500 16005KT P6SM VCFG FEW003 SCT200=

USA.gov is the U.S. government's official web portal to all federal, state and local government web resources and services.